Time;durP1;ratioP1;P1;durP2;ratioP2;P2;SDS_P1;SDS_P2;PMS_P1;PMS_P2;Temp;Humidity;BMP_temperature;BMP_pressure;BME280_temperature;BME280_humidity;BME280_pressure;Samples;Min_cycle;Max_cycle;Signal;HPM_P1;HPM_P2
2022/06/01 00:01:47;;;;;;;24.90;22.40;;;;;;;10.32;86.23;101301.78;5045598;28;20028;-54
2022/06/01 00:04:12;;;;;;;25.73;22.63;;;;;;;10.30;86.42;101303.75;5045312;28;20037;-53
2022/06/01 00:06:37;;;;;;;25.95;23.33;;;;;;;10.31;86.55;101302.78;5047028;28;20025;-54
2022/06/01 00:09:03;;;;;;;27.95;24.65;;;;;;;10.34;86.54;101302.44;5045955;28;20411;-53
2022/06/01 00:11:29;;;;;;;27.48;24.52;;;;;;;10.34;86.90;101305.09;5047340;28;20037;-55
2022/06/01 00:13:54;;;;;;;26.92;24.08;;;;;;;10.34;86.90;101300.63;5044250;28;20504;-53
2022/06/01 00:16:19;;;;;;;27.48;24.58;;;;;;;10.37;87.06;101304.78;5044852;28;20025;-56
2022/06/01 00:18:45;;;;;;;27.73;24.83;;;;;;;10.36;87.12;101311.09;5046271;28;20029;-54
2022/06/01 00:21:10;;;;;;;28.73;25.63;;;;;;;10.33;86.77;101312.22;5045038;28;20264;-55
2022/06/01 00:23:36;;;;;;;29.10;25.63;;;;;;;10.29;87.09;101307.41;5046413;28;20108;-54
2022/06/01 00:26:02;;;;;;;28.20;25.33;;;;;;;10.24;86.89;101303.41;5044208;28;20025;-55
2022/06/01 00:28:28;;;;;;;28.55;25.60;;;;;;;10.21;86.55;101309.03;5046643;28;20025;-52
2022/06/01 00:30:53;;;;;;;28.42;25.33;;;;;;;10.15;86.52;101312.28;5048707;28;20106;-53
2022/06/01 00:33:19;;;;;;;29.92;25.77;;;;;;;10.12;86.98;101309.94;5044485;28;20036;-55
2022/06/01 00:35:44;;;;;;;29.27;26.13;;;;;;;10.08;86.91;101310.38;5046623;28;20399;-55
2022/06/01 00:38:09;;;;;;;29.15;26.05;;;;;;;10.03;87.19;101307.38;5048643;28;20031;-55
2022/06/01 00:40:35;;;;;;;29.73;26.60;;;;;;;10.00;87.16;101305.03;5043760;28;20048;-52
2022/06/01 00:43:16;;;;;;;29.15;25.88;;;;;;;9.98;87.38;101315.81;5043736;28;20037;-55
2022/06/01 00:45:41;;;;;;;29.60;26.48;;;;;;;9.96;87.42;101308.97;5045076;28;20049;-53
2022/06/01 00:48:07;;;;;;;29.92;26.83;;;;;;;9.88;87.30;101305.28;5050929;28;20072;-55
2022/06/01 00:50:39;;;;;;;30.75;26.67;;;;;;;9.85;87.92;101310.06;5046223;28;20021;-53
2022/06/01 00:53:16;;;;;;;30.65;27.33;;;;;;;9.82;87.79;101308.53;5045743;28;20033;-54
2022/06/01 00:55:55;;;;;;;32.67;27.10;;;;;;;9.81;87.80;101303.38;5049269;28;20391;-54
2022/06/01 00:58:25;;;;;;;31.90;27.80;;;;;;;9.78;87.75;101309.00;5043683;28;20368;-56
2022/06/01 01:00:52;;;;;;;34.53;27.67;;;;;;;9.74;87.85;101297.03;5039129;28;20032;-55
2022/06/01 01:03:21;;;;;;;33.55;27.67;;;;;;;9.73;88.07;101304.16;5045547;28;20550;-54
2022/06/01 01:06:12;;;;;;;32.22;27.92;;;;;;;9.72;88.14;101301.66;5046291;28;20028;-54
2022/06/01 01:08:38;;;;;;;32.00;27.88;;;;;;;9.73;88.21;101304.16;5036769;28;20045;-55
2022/06/01 01:11:09;;;;;;;31.60;28.20;;;;;;;9.73;88.41;101305.97;5049106;28;20033;-55
2022/06/01 01:13:35;;;;;;;33.72;28.08;;;;;;;9.71;88.13;101306.13;5047280;28;20032;-55
2022/06/01 01:16:01;;;;;;;31.48;28.05;;;;;;;9.70;88.25;101306.28;5049253;28;20029;-55
2022/06/01 01:18:30;;;;;;;31.42;28.02;;;;;;;9.71;88.39;101302.66;5039271;28;20036;-55
2022/06/01 01:21:07;;;;;;;32.13;28.02;;;;;;;9.75;88.30;101310.16;5046913;28;20028;-54
2022/06/01 01:23:54;;;;;;;34.00;28.17;;;;;;;9.82;88.64;101313.84;5046782;28;20129;-54
2022/06/01 01:26:22;;;;;;;28.63;25.52;;;;;;;9.84;88.21;101313.72;5043645;28;21140;-55
2022/06/01 01:28:47;;;;;;;29.85;26.45;;;;;;;9.88;88.46;101307.13;5047074;28;20056;-53
2022/06/01 01:31:21;;;;;;;29.67;26.30;;;;;;;9.95;88.21;101313.47;5046563;28;20549;-54
2022/06/01 01:33:48;;;;;;;29.88;26.73;;;;;;;9.99;88.12;101311.31;5042971;28;20136;-56
2022/06/01 01:36:16;;;;;;;30.75;27.23;;;;;;;10.03;88.03;101313.50;5046600;28;20219;-53
2022/06/01 01:38:47;;;;;;;30.42;27.13;;;;;;;10.02;88.28;101301.22;5043888;28;20025;-55
2022/06/01 01:41:18;;;;;;;31.13;27.75;;;;;;;10.02;88.22;101298.56;5045078;28;20667;-55
2022/06/01 01:44:10;;;;;;;33.45;27.38;;;;;;;10.00;88.53;101303.22;5043837;28;20036;-55
2022/06/01 01:46:36;;;;;;;30.58;26.02;;;;;;;9.97;88.37;101300.88;5047108;28;20083;-54
2022/06/01 01:49:02;;;;;;;30.98;27.67;;;;;;;9.91;88.37;101299.69;5046524;28;20036;-54
2022/06/01 01:51:29;;;;;;;31.25;27.85;;;;;;;9.86;88.35;101303.78;5045704;28;20111;-55
2022/06/01 01:53:55;;;;;;;32.05;28.48;;;;;;;9.82;88.29;101295.28;5047738;28;20095;-54
2022/06/01 01:56:36;;;;;;;31.95;28.58;;;;;;;9.80;88.46;101299.91;5045258;28;20032;-53
2022/06/01 01:59:22;;;;;;;35.35;29.33;;;;;;;9.85;88.50;101299.47;5046365;28;20098;-54
2022/06/01 02:02:10;;;;;;;32.90;29.38;;;;;;;9.90;88.98;101302.47;5045639;28;20170;-55
2022/06/01 02:07:43;;;;;;;34.97;28.98;;;;;;;9.95;88.94;101297.53;5043382;28;20460;-54
2022/06/01 02:12:53;;;;;;;35.92;31.25;;;;;;;9.86;88.95;101303.78;5046197;28;20119;-55
2022/06/01 02:15:47;;;;;;;36.67;31.30;;;;;;;9.82;88.61;101305.06;5028055;28;20028;-52
2022/06/01 02:18:21;;;;;;;37.10;30.73;;;;;;;9.78;88.94;101304.53;5038032;28;20052;-54
2022/06/01 02:20:51;;;;;;;35.63;31.73;;;;;;;9.78;88.92;101306.34;5039955;28;20024;-55
2022/06/01 02:23:17;;;;;;;37.35;31.67;;;;;;;9.77;89.53;101302.88;5045506;28;20028;-55
2022/06/01 02:25:47;;;;;;;37.47;32.28;;;;;;;9.75;89.39;101298.72;5047642;28;20035;-55
2022/06/01 02:28:12;;;;;;;40.97;33.58;;;;;;;9.80;89.77;101301.72;5042670;28;20028;-56
2022/06/01 02:30:40;;;;;;;37.42;32.30;;;;;;;9.81;89.70;101301.56;5045310;28;20507;-55
2022/06/01 02:33:13;;;;;;;38.83;32.92;;;;;;;9.82;89.64;101299.75;5046788;28;20292;-52
2022/06/01 02:35:43;;;;;;;39.80;34.78;;;;;;;9.81;89.66;101298.09;5045949;28;20033;-56
2022/06/01 02:38:14;;;;;;;39.42;34.20;;;;;;;9.79;89.30;101300.88;5044078;28;20024;-56
2022/06/01 02:40:39;;;;;;;39.00;32.92;;;;;;;9.75;89.53;101301.34;5041278;28;20029;-55
2022/06/01 02:43:05;;;;;;;38.47;32.30;;;;;;;9.71;89.37;101292.06;5045368;28;20033;-56
2022/06/01 02:45:30;;;;;;;38.28;31.92;;;;;;;9.68;89.50;101297.66;5046528;28;20024;-55
2022/06/01 02:47:59;;;;;;;39.55;31.92;;;;;;;9.66;89.23;101300.47;5039154;28;20035;-55
2022/06/01 02:50:28;;;;;;;41.47;32.08;;;;;;;9.63;89.43;101296.31;5045213;28;20512;-56
2022/06/01 02:52:54;;;;;;;43.42;32.33;;;;;;;9.61;89.15;101298.28;5052374;28;20040;-56
2022/06/01 02:55:23;;;;;;;39.10;32.63;;;;;;;9.59;89.56;101296.78;5045922;28;20025;-56
2022/06/01 02:57:51;;;;;;;37.78;31.52;;;;;;;9.54;89.32;101291.94;5043552;28;20057;-55
2022/06/01 03:00:22;;;;;;;40.90;32.08;;;;;;;9.50;89.05;101295.84;5041008;28;20040;-55
2022/06/01 03:02:52;;;;;;;37.55;31.63;;;;;;;9.48;89.33;101289.88;5045572;28;20104;-53
2022/06/01 03:05:20;;;;;;;38.50;32.97;;;;;;;9.43;89.21;101300.09;5053529;28;20032;-55
2022/06/01 03:07:46;;;;;;;38.95;31.98;;;;;;;9.40;89.55;101296.91;5043815;28;20075;-54
2022/06/01 03:10:11;;;;;;;41.13;33.25;;;;;;;9.36;89.36;101290.25;5044319;28;20538;-55
2022/06/01 03:12:38;;;;;;;43.10;32.80;;;;;;;9.34;89.71;101287.75;5044905;28;20092;-53
2022/06/01 03:15:06;;;;;;;40.33;32.00;;;;;;;9.32;89.69;101292.38;5045544;28;20056;-55
2022/06/01 03:17:31;;;;;;;42.08;32.50;;;;;;;9.30;89.57;101297.84;5044212;28;20025;-55
2022/06/01 03:19:57;;;;;;;41.08;32.80;;;;;;;9.27;89.69;101298.16;5044006;28;20127;-55
2022/06/01 03:22:22;;;;;;;39.13;33.15;;;;;;;9.25;89.77;101300.13;5045841;28;20029;-52
2022/06/01 03:24:48;;;;;;;42.17;33.70;;;;;;;9.21;89.43;101304.03;5044007;28;20526;-54
2022/06/01 03:27:14;;;;;;;42.50;34.15;;;;;;;9.20;89.44;101298.88;5042755;28;20025;-55
2022/06/01 03:29:39;;;;;;;48.03;33.53;;;;;;;9.18;89.98;101300.84;5025024;28;20051;-56
2022/06/01 03:32:06;;;;;;;43.17;33.78;;;;;;;9.16;89.73;101295.69;5047599;28;20029;-53
2022/06/01 03:34:31;;;;;;;43.20;32.92;;;;;;;9.08;90.04;101289.47;5043728;28;20090;-54
2022/06/01 03:36:57;;;;;;;42.80;34.22;;;;;;;9.10;90.10;101296.28;5041648;28;20056;-55
2022/06/01 03:39:22;;;;;;;44.55;34.85;;;;;;;9.09;90.11;101305.22;5039428;28;20030;-52
2022/06/01 03:41:48;;;;;;;45.92;34.35;;;;;;;9.05;90.16;101298.56;5045852;28;20032;-55
2022/06/01 03:47:01;;;;;;;43.10;34.25;;;;;;;9.02;90.08;101308.63;5045482;28;20102;-55
2022/06/01 03:49:27;;;;;;;44.22;33.70;;;;;;;9.00;89.82;101314.09;5049863;28;20017;-54
2022/06/01 03:51:52;;;;;;;41.78;33.63;;;;;;;8.98;90.36;101308.09;5048361;28;20468;-55
2022/06/01 03:54:17;;;;;;;40.65;32.90;;;;;;;8.98;90.44;101306.28;5039292;28;20033;-52
2022/06/01 03:56:43;;;;;;;41.72;33.20;;;;;;;8.98;90.80;101310.75;5045733;28;20035;-55
2022/06/01 03:59:08;;;;;;;39.35;33.30;;;;;;;8.98;90.64;101310.75;5048460;28;20036;-55
2022/06/01 04:01:33;;;;;;;44.00;33.45;;;;;;;8.99;90.71;101313.25;5048609;28;20040;-54
2022/06/01 04:03:59;;;;;;;42.90;33.42;;;;;;;9.00;90.60;101312.25;5050823;28;20043;-55
2022/06/01 04:06:24;;;;;;;42.15;32.60;;;;;;;8.99;90.99;101315.91;5046278;28;20028;-56
2022/06/01 04:08:49;;;;;;;42.03;33.47;;;;;;;8.97;90.77;101317.88;5047674;28;20430;-53
2022/06/01 04:11:14;;;;;;;41.67;32.13;;;;;;;8.97;90.86;101320.50;5052653;28;20065;-55
2022/06/01 04:13:40;;;;;;;41.97;33.05;;;;;;;8.99;90.86;101315.91;5049862;28;20491;-53
2022/06/01 04:16:05;;;;;;;43.50;33.15;;;;;;;9.00;90.73;101320.22;5047832;28;20025;-55
2022/06/01 04:18:30;;;;;;;38.70;32.00;;;;;;;9.02;91.01;101329.81;5047601;28;20036;-54
2022/06/01 04:20:56;;;;;;;39.55;30.02;;;;;;;9.01;91.01;101321.03;5049964;28;20032;-54
2022/06/01 04:23:22;;;;;;;37.30;29.98;;;;;;;9.02;90.70;101319.22;5044974;28;20029;-55
2022/06/01 04:25:47;;;;;;;42.25;30.17;;;;;;;9.04;91.11;101315.44;5046783;28;20037;-55
2022/06/01 04:28:13;;;;;;;37.70;30.05;;;;;;;9.04;90.54;101318.09;5044601;28;20492;-55
2022/06/01 04:30:38;;;;;;;37.58;29.10;;;;;;;9.03;90.37;101321.72;5042491;28;20036;-55
2022/06/01 04:33:04;;;;;;;37.90;28.73;;;;;;;9.00;90.64;101320.22;5047231;28;20315;-54
2022/06/01 04:35:30;;;;;;;37.30;29.30;;;;;;;9.03;90.74;101318.25;5047266;28;20052;-54
2022/06/01 04:38:13;;;;;;;38.10;30.35;;;;;;;9.03;91.12;101318.25;5043361;28;20056;-54
2022/06/01 04:40:44;;;;;;;37.22;29.38;;;;;;;9.03;90.81;101324.38;5047743;28;20037;-55
2022/06/01 04:43:11;;;;;;;38.33;29.42;;;;;;;9.04;91.13;101325.22;5046327;28;20033;-56
2022/06/01 04:45:36;;;;;;;38.72;29.17;;;;;;;9.04;90.96;101322.56;5046611;28;20442;-53
2022/06/01 04:48:02;;;;;;;37.05;28.35;;;;;;;9.02;91.20;101322.72;5044120;28;20460;-53
2022/06/01 04:50:27;;;;;;;39.60;29.58;;;;;;;9.02;91.08;101324.53;5043511;28;20025;-55
2022/06/01 04:52:52;;;;;;;37.08;29.27;;;;;;;8.98;90.94;101319.53;5049730;28;20028;-54
2022/06/01 04:55:18;;;;;;;43.10;29.20;;;;;;;8.97;91.23;101317.03;5047841;28;20333;-56
2022/06/01 04:57:43;;;;;;;36.15;28.60;;;;;;;8.96;91.30;101320.63;5043027;28;20040;-54
2022/06/01 05:00:09;;;;;;;38.45;29.42;;;;;;;8.97;91.29;101324.97;5047466;28;20484;-55
2022/06/01 05:02:34;;;;;;;41.60;29.58;;;;;;;8.94;91.50;101315.47;5044662;28;20036;-55
2022/06/01 05:05:00;;;;;;;40.22;30.02;;;;;;;9.02;91.51;101313.94;5048290;28;20396;-56
2022/06/01 05:07:25;;;;;;;45.97;30.00;;;;;;;9.06;91.77;101324.06;5048683;28;20024;-53
2022/06/01 05:09:50;;;;;;;37.70;29.65;;;;;;;9.10;91.96;101324.63;5050226;28;20252;-54
2022/06/01 05:12:16;;;;;;;39.15;28.90;;;;;;;9.13;91.86;101324.31;5046811;28;20037;-53
2022/06/01 05:14:41;;;;;;;39.15;28.48;;;;;;;9.18;92.03;101322.88;5047508;28;20158;-54
2022/06/01 05:17:06;;;;;;;40.42;29.83;;;;;;;9.24;92.27;101332.03;5046198;28;20279;-54
2022/06/01 05:19:33;;;;;;;37.53;28.98;;;;;;;9.24;92.29;101330.22;5053737;28;20021;-53
2022/06/01 05:21:59;;;;;;;39.90;29.05;;;;;;;9.26;91.96;101324.78;5049108;28;20403;-53
2022/06/01 05:24:25;;;;;;;39.30;27.17;;;;;;;9.29;91.83;101327.16;5045809;28;20549;-55
2022/06/01 05:26:50;;;;;;;40.97;28.45;;;;;;;9.34;91.75;101332.00;5047657;28;20043;-55
2022/06/01 05:29:15;;;;;;;40.10;27.08;;;;;;;9.39;92.01;101332.38;5046857;28;20531;-54
2022/06/01 05:31:43;;;;;;;35.45;27.42;;;;;;;9.44;92.14;101338.88;5045426;28;20447;-53
2022/06/01 05:34:08;;;;;;;37.80;27.70;;;;;;;9.48;91.92;101339.41;5047501;28;20104;-53
2022/06/01 05:36:33;;;;;;;35.88;26.90;;;;;;;9.47;92.18;101327.97;5054495;28;20288;-56
2022/06/01 05:38:58;;;;;;;34.22;26.65;;;;;;;9.47;91.97;101320.00;5051409;28;20029;-55
2022/06/01 05:41:24;;;;;;;36.33;26.95;;;;;;;9.50;92.09;101332.97;5038399;28;20511;-55
2022/06/01 05:43:51;;;;;;;36.72;27.63;;;;;;;9.54;92.07;101334.34;5047821;28;20040;-53
2022/06/01 05:46:17;;;;;;;37.58;28.65;;;;;;;9.64;92.36;101334.25;5050518;28;20032;-54
2022/06/01 05:48:42;;;;;;;38.33;27.70;;;;;;;9.72;92.37;101346.75;5049062;28;20024;-54
2022/06/01 05:51:07;;;;;;;38.70;28.35;;;;;;;9.78;92.70;101343.50;5050411;28;20028;-53
2022/06/01 05:53:33;;;;;;;38.65;27.83;;;;;;;9.85;92.33;101347.22;5051660;28;20115;-54
2022/06/01 05:55:58;;;;;;;42.92;27.48;;;;;;;9.90;92.27;101345.75;5055878;28;20031;-55
2022/06/01 05:58:26;;;;;;;36.03;25.73;;;;;;;9.94;92.41;101347.13;5044478;28;20028;-54
2022/06/01 06:00:53;;;;;;;35.38;25.83;;;;;;;10.00;92.66;101339.53;5043819;28;20058;-52
2022/06/01 06:03:20;;;;;;;36.83;25.88;;;;;;;10.03;92.20;101342.69;5052049;28;20028;-53
2022/06/01 06:08:30;;;;;;;34.60;26.02;;;;;;;10.13;92.27;101350.59;5056277;28;20136;-54
2022/06/01 06:10:56;;;;;;;34.03;24.75;;;;;;;10.18;92.36;101353.59;5046845;28;20748;-54
2022/06/01 06:13:21;;;;;;;37.13;25.65;;;;;;;10.29;92.28;101355.19;5043065;28;20029;-53
2022/06/01 06:15:46;;;;;;;34.13;25.50;;;;;;;10.33;91.63;101361.84;5043360;28;20457;-54
2022/06/01 06:18:13;;;;;;;34.67;23.15;;;;;;;10.41;92.18;101365.41;5044441;28;20444;-52
2022/06/01 06:20:42;;;;;;;32.65;23.17;;;;;;;10.46;91.85;101365.75;5044784;28;20117;-53
2022/06/01 06:23:09;;;;;;;35.88;24.67;;;;;;;10.54;91.69;101363.16;5041995;28;20033;-55
2022/06/01 06:25:34;;;;;;;33.40;23.35;;;;;;;10.62;91.93;101369.50;5048113;28;20047;-54
2022/06/01 06:28:00;;;;;;;35.30;23.17;;;;;;;10.72;91.88;101373.72;5045579;28;20029;-53
2022/06/01 06:30:25;;;;;;;31.98;22.70;;;;;;;10.78;91.76;101383.69;5044043;28;20082;-54
2022/06/01 06:32:51;;;;;;;34.67;22.95;;;;;;;10.82;90.98;101384.22;5046973;28;20029;-53
2022/06/01 06:35:17;;;;;;;33.88;22.77;;;;;;;10.88;91.40;101388.06;5047657;28;20062;-52
2022/06/01 06:37:42;;;;;;;35.38;23.50;;;;;;;10.96;91.36;101391.56;5046984;28;20028;-54
2022/06/01 06:40:08;;;;;;;34.10;22.23;;;;;;;10.99;91.03;101385.13;5043974;28;20126;-55
2022/06/01 06:42:34;;;;;;;29.08;21.45;;;;;;;11.03;91.41;101382.00;5042920;28;20029;-52
2022/06/01 06:44:59;;;;;;;29.88;21.95;;;;;;;11.18;91.25;101395.47;5044402;28;20032;-52
2022/06/01 06:47:24;;;;;;;27.98;21.08;;;;;;;11.27;90.76;101386.53;5042250;28;20439;-55
2022/06/01 06:49:49;;;;;;;30.90;21.02;;;;;;;11.31;90.52;101389.72;5047700;28;20036;-55
2022/06/01 06:52:15;;;;;;;29.35;20.15;;;;;;;11.35;90.33;101391.06;5047060;28;20020;-52
2022/06/01 06:54:40;;;;;;;25.08;17.70;;;;;;;11.41;90.20;101399.22;5047799;28;20175;-54
2022/06/01 06:57:07;;;;;;;23.77;16.95;;;;;;;11.53;89.58;101397.06;5042087;28;20262;-54
2022/06/01 06:59:32;;;;;;;25.02;17.25;;;;;;;11.60;89.46;101392.78;5042224;28;20121;-54
2022/06/01 07:01:58;;;;;;;26.88;18.30;;;;;;;11.67;89.11;101404.44;5041628;28;20150;-53
2022/06/01 07:04:23;;;;;;;22.02;16.70;;;;;;;11.76;89.15;101411.41;5045313;28;20251;-54
2022/06/01 07:06:49;;;;;;;22.42;16.08;;;;;;;11.77;88.37;101406.94;5044779;28;20499;-55
2022/06/01 07:09:14;;;;;;;22.77;15.80;;;;;;;11.84;88.38;101407.13;5045709;28;20094;-55
2022/06/01 07:11:39;;;;;;;23.92;17.65;;;;;;;11.93;88.40;101398.19;5045923;28;20064;-55
2022/06/01 07:14:05;;;;;;;23.90;16.95;;;;;;;12.04;87.96;101403.16;5043969;28;20028;-54
2022/06/01 07:16:32;;;;;;;19.40;14.63;;;;;;;12.05;87.46;101410.97;5043142;28;20040;-53
2022/06/01 07:19:00;;;;;;;22.42;15.25;;;;;;;12.10;86.70;101402.50;5032229;28;20029;-54
2022/06/01 07:21:26;;;;;;;21.45;14.50;;;;;;;12.19;86.70;101406.84;5049094;28;20033;-53
2022/06/01 07:23:52;;;;;;;20.80;15.18;;;;;;;12.31;86.95;101402.81;5056552;28;20041;-51
2022/06/01 07:26:25;;;;;;;22.35;14.48;;;;;;;12.35;86.03;101414.78;5050136;28;20048;-52
2022/06/01 07:28:52;;;;;;;17.27;12.85;;;;;;;12.39;86.00;101397.47;5049623;28;20059;-52
2022/06/01 07:31:18;;;;;;;19.38;13.02;;;;;;;12.43;85.66;101397.97;5049696;28;20029;-53
2022/06/01 07:33:44;;;;;;;16.30;11.75;;;;;;;12.56;84.99;101403.63;5050805;28;20498;-54
2022/06/01 07:36:12;;;;;;;15.77;12.32;;;;;;;12.60;84.07;101412.09;5049205;28;20029;-51
2022/06/01 07:44:18;;;;;;;16.48;12.07;;;;;;;12.97;83.41;101403.50;5050543;28;20089;-52
2022/06/01 07:46:43;;;;;;;16.23;11.43;;;;;;;13.08;83.29;101408.47;5045437;28;20032;-54
2022/06/01 07:49:09;;;;;;;14.68;11.55;;;;;;;13.22;82.73;101404.25;5053559;28;20399;-54
2022/06/01 07:51:36;;;;;;;14.77;10.68;;;;;;;13.30;81.28;101401.56;5049753;28;20373;-55
2022/06/01 07:54:01;;;;;;;15.10;9.95;;;;;;;13.34;80.46;101405.53;5049406;28;20029;-53
2022/06/01 07:56:27;;;;;;;12.32;8.77;;;;;;;13.45;80.34;101409.66;5050435;28;20435;-54
2022/06/01 07:58:52;;;;;;;11.25;8.63;;;;;;;13.56;79.70;101412.75;5041336;28;20029;-53
2022/06/01 08:01:21;;;;;;;12.30;8.93;;;;;;;13.67;78.79;101410.69;5050243;28;20063;-53
2022/06/01 08:03:47;;;;;;;12.33;8.07;;;;;;;13.68;78.08;101412.34;5044205;28;20056;-54
2022/06/01 08:06:13;;;;;;;12.05;8.15;;;;;;;13.71;77.85;101414.66;5047218;28;20765;-53
2022/06/01 08:08:39;;;;;;;11.35;7.63;;;;;;;13.72;77.45;101411.00;5050077;28;20025;-52
2022/06/01 08:11:04;;;;;;;10.77;8.32;;;;;;;13.68;77.18;101409.69;5045425;28;20520;-53
2022/06/01 08:13:29;;;;;;;13.50;8.13;;;;;;;13.63;76.98;101407.56;5050542;28;20039;-54
2022/06/01 08:15:55;;;;;;;10.63;8.05;;;;;;;13.65;76.53;101405.53;5047938;28;20025;-53
2022/06/01 08:18:23;;;;;;;9.40;6.82;;;;;;;13.75;76.24;101411.47;5047719;28;20112;-53
2022/06/01 08:20:49;;;;;;;8.48;7.35;;;;;;;13.79;76.35;101410.09;5047772;28;20546;-55
2022/06/01 08:23:14;;;;;;;10.93;8.35;;;;;;;13.80;75.72;101413.59;5048439;28;20298;-55
2022/06/01 08:25:41;;;;;;;15.05;9.10;;;;;;;13.73;75.58;101416.16;5050614;28;20400;-54
2022/06/01 08:28:07;;;;;;;11.02;8.43;;;;;;;13.78;75.69;101404.94;5041421;28;20108;-55
2022/06/01 08:30:35;;;;;;;10.48;8.20;;;;;;;13.82;75.20;101409.72;5049907;28;20059;-55
2022/06/01 08:33:02;;;;;;;13.55;7.88;;;;;;;13.91;74.32;101399.84;5051491;28;20029;-55
2022/06/01 08:35:32;;;;;;;9.90;7.68;;;;;;;14.05;73.52;101417.75;5048312;28;20029;-53
2022/06/01 08:37:59;;;;;;;10.82;7.72;;;;;;;14.23;73.66;101412.09;5048903;28;20064;-54
2022/06/01 08:40:33;;;;;;;11.18;7.78;;;;;;;14.26;72.33;101406.41;5047049;28;20103;-55
2022/06/01 08:43:06;;;;;;;10.02;8.13;;;;;;;14.23;72.17;101404.09;5047224;28;20037;-55
2022/06/01 08:45:32;;;;;;;13.55;8.75;;;;;;;14.17;71.84;101402.16;5055753;28;20029;-56
2022/06/01 08:47:59;;;;;;;9.18;7.85;;;;;;;14.21;71.44;101401.59;5046599;28;20020;-54
2022/06/01 08:50:29;;;;;;;9.80;6.90;;;;;;;14.35;70.89;101405.28;5047858;28;20029;-54
2022/06/01 08:52:58;;;;;;;10.70;7.40;;;;;;;14.40;70.30;101405.59;5045031;28;20021;-55
2022/06/01 08:55:27;;;;;;;9.63;7.40;;;;;;;14.40;70.42;101410.94;5055461;28;20427;-55
2022/06/01 08:58:10;;;;;;;8.52;7.63;;;;;;;14.26;69.71;101411.75;5040897;28;20053;-53
2022/06/01 09:00:52;;;;;;;8.80;7.47;;;;;;;14.12;70.29;101417.84;5055020;28;20067;-55
2022/06/01 09:03:31;;;;;;;10.85;8.18;;;;;;;13.98;70.38;101413.31;5046362;28;20105;-55
2022/06/01 09:06:09;;;;;;;13.60;8.43;;;;;;;13.89;70.90;101418.72;5047099;28;20029;-54
2022/06/01 09:08:39;;;;;;;12.32;8.95;;;;;;;13.80;71.46;101413.59;5054712;28;20433;-53
2022/06/01 09:11:10;;;;;;;10.75;8.85;;;;;;;13.70;72.37;101421.00;5048321;28;20025;-55
2022/06/01 09:14:09;;;;;;;12.73;8.45;;;;;;;13.61;72.24;101434.41;5049165;28;20032;-55
2022/06/01 09:16:38;;;;;;;9.65;8.25;;;;;;;13.44;71.97;101429.34;5040315;28;20044;-55
2022/06/01 09:19:04;;;;;;;;;;;;;;;13.41;72.13;101461.69;5051143;28;20037;-55
2022/06/01 09:24:23;;;;;;;6.05;5.40;;;;;;;11.72;74.68;101470.47;5047926;28;20032;-54
2022/06/01 09:27:08;;;;;;;6.18;5.57;;;;;;;11.04;78.37;101470.53;5051590;28;20039;-54
2022/06/01 09:29:42;;;;;;;6.32;5.40;;;;;;;10.57;80.57;101470.06;5050417;28;20029;-52
2022/06/01 09:32:23;;;;;;;7.72;6.20;;;;;;;10.27;82.26;101461.53;5053557;28;20419;-52
2022/06/01 09:34:49;;;;;;;7.82;5.80;;;;;;;10.12;83.22;101441.78;5048778;28;20036;-52
2022/06/01 09:37:22;;;;;;;8.77;6.20;;;;;;;10.11;84.19;101443.59;5043318;28;20024;-54
2022/06/01 09:39:57;;;;;;;7.60;5.53;;;;;;;10.20;84.98;101447.16;5046470;28;20179;-52
2022/06/01 09:42:34;;;;;;;9.25;6.35;;;;;;;10.33;86.49;101458.25;5052331;28;20013;-54
2022/06/01 09:45:02;;;;;;;7.93;7.20;;;;;;;10.55;87.12;101451.63;5048799;28;20048;-53
2022/06/01 09:47:40;;;;;;;6.57;5.82;;;;;;;10.71;87.71;101450.91;5046101;28;20059;-52
2022/06/01 09:50:23;;;;;;;5.32;4.57;;;;;;;10.83;87.14;101452.28;5048449;28;20392;-53
2022/06/01 09:52:52;;;;;;;6.00;5.38;;;;;;;11.03;86.86;101455.56;5051745;28;20058;-53
2022/06/01 09:55:21;;;;;;;4.97;4.57;;;;;;;11.17;86.42;101452.31;5055364;28;20028;-52
2022/06/01 09:58:10;;;;;;;3.50;3.20;;;;;;;11.28;85.27;101451.22;5046431;28;20321;-55
2022/06/01 10:06:25;;;;;;;2.38;2.17;;;;;;;11.73;82.99;101472.13;5044386;28;20038;-55
2022/06/01 10:09:18;;;;;;;7.72;2.88;;;;;;;11.83;81.35;101477.31;5051703;28;20040;-54
2022/06/01 10:11:46;;;;;;;5.07;4.57;;;;;;;11.85;81.17;101488.63;5040074;28;20053;-54
2022/06/01 10:14:20;;;;;;;5.90;4.38;;;;;;;11.83;81.43;101487.97;5046936;28;20052;-54
2022/06/01 10:17:03;;;;;;;5.22;4.60;;;;;;;11.78;80.88;101489.28;5046962;28;20440;-53
2022/06/01 10:19:34;;;;;;;5.05;4.55;;;;;;;11.78;81.08;101483.13;5046066;28;20032;-53
2022/06/01 10:22:07;;;;;;;6.00;5.32;;;;;;;11.84;81.99;101493.13;5051567;28;20066;-52
2022/06/01 10:24:44;;;;;;;6.68;5.57;;;;;;;11.87;82.71;101492.00;5048281;28;20452;-53
2022/06/01 10:27:11;;;;;;;6.60;5.35;;;;;;;11.86;82.26;101487.66;5047249;28;20028;-54
2022/06/01 10:29:45;;;;;;;7.28;4.88;;;;;;;11.89;82.04;101495.31;5046189;28;20032;-53
2022/06/01 10:32:28;;;;;;;6.10;4.75;;;;;;;11.97;82.43;101493.50;5053123;28;20197;-53
2022/06/01 10:35:34;;;;;;;7.22;5.20;;;;;;;12.07;82.67;101499.50;5046823;28;20021;-54
2022/06/01 10:38:22;;;;;;;5.45;4.88;;;;;;;12.14;81.45;101504.16;5016300;28;20156;-53
2022/06/01 10:40:58;;;;;;;6.22;5.07;;;;;;;12.31;82.18;101497.88;5046966;28;20029;-53
2022/06/01 10:43:38;;;;;;;7.25;5.60;;;;;;;12.48;81.90;101498.72;5046988;28;20029;-54
2022/06/01 10:46:22;;;;;;;6.00;5.13;;;;;;;12.71;81.33;101497.84;5045317;28;20619;-55
2022/06/01 10:48:56;;;;;;;6.00;5.40;;;;;;;12.96;81.59;101490.63;5046608;28;20032;-55
2022/06/01 10:51:27;;;;;;;6.45;5.85;;;;;;;12.97;80.15;101494.13;5043087;28;20087;-51
2022/06/01 10:54:05;;;;;;;8.02;6.15;;;;;;;13.00;80.21;101493.78;5043151;28;20032;-55
2022/06/01 10:56:31;;;;;;;6.40;5.80;;;;;;;13.02;79.18;101489.16;5046479;28;20075;-54
2022/06/01 10:59:02;;;;;;;7.03;6.10;;;;;;;13.06;78.64;101485.13;5044146;28;20538;-55
2022/06/01 11:01:48;;;;;;;6.15;5.63;;;;;;;13.15;77.54;101494.78;5047143;28;20032;-51
2022/06/01 11:04:29;;;;;;;7.05;5.93;;;;;;;13.41;77.26;101481.22;5039253;28;20028;-54
2022/06/01 11:07:06;;;;;;;7.68;6.30;;;;;;;13.55;76.81;101490.31;5040183;28;20025;-55
2022/06/01 11:09:40;;;;;;;9.48;7.28;;;;;;;13.85;77.87;101496.66;5045877;28;20109;-55
2022/06/01 11:12:08;;;;;;;10.93;7.50;;;;;;;13.94;77.73;101471.59;5047004;28;20028;-54
2022/06/01 11:14:43;;;;;;;8.20;6.78;;;;;;;13.98;76.01;101499.59;5041380;28;20024;-55
2022/06/01 11:17:26;;;;;;;8.55;6.55;;;;;;;13.91;75.38;101491.47;5045437;28;20082;-53
2022/06/01 11:20:14;;;;;;;9.25;7.40;;;;;;;13.92;76.59;101500.31;5047130;28;20025;-52
2022/06/01 11:22:54;;;;;;;9.10;8.20;;;;;;;13.90;77.47;101494.31;5042307;28;21104;-55
2022/06/01 11:25:40;;;;;;;9.02;8.07;;;;;;;13.93;77.70;101497.47;5041175;28;20035;-54
2022/06/01 11:28:32;;;;;;;9.82;8.00;;;;;;;13.94;78.10;101487.59;5048390;28;20086;-54
2022/06/01 11:31:17;;;;;;;10.57;7.95;;;;;;;14.02;78.17;101495.56;5039774;28;20087;-53
2022/06/01 11:33:53;;;;;;;10.02;8.07;;;;;;;14.14;78.09;101495.97;5044638;28;20512;-55
2022/06/01 11:36:30;;;;;;;10.65;8.00;;;;;;;14.34;78.07;101490.97;5045858;28;20132;-55
2022/06/01 11:39:23;;;;;;;10.15;9.07;;;;;;;14.68;78.17;101495.91;5041716;28;20029;-54
2022/06/01 11:42:19;;;;;;;9.32;7.38;;;;;;;14.97;75.98;101485.25;5043445;28;20040;-54
2022/06/01 11:44:53;;;;;;;9.80;5.70;;;;;;;15.27;74.26;101477.22;5010578;28;20052;-54
2022/06/01 11:47:22;;;;;;;6.90;5.65;;;;;;;15.48;73.22;101488.00;5037342;28;20059;-52
2022/06/01 11:50:18;;;;;;;7.15;5.22;;;;;;;15.63;71.50;101480.00;5045227;28;20032;-55
2022/06/01 11:53:12;;;;;;;7.18;4.90;;;;;;;15.78;70.19;101489.63;5042239;28;20540;-55
2022/06/01 11:55:38;;;;;;;6.90;4.50;;;;;;;15.71;69.72;101486.06;5047194;28;20075;-56